Time;durP1;ratioP1;P1;durP2;ratioP2;P2;SDS_P1;SDS_P2;PMS_P1;PMS_P2;Temp;Humidity;BMP_temperature;BMP_pressure;BME280_temperature;BME280_humidity;BME280_pressure;Samples;Min_cycle;Max_cycle;Signal;HPM_P1;HPM_P2
2021/11/28 00:02:23;;;;;;;70.07;41.10;;;;;;;;;;5003691;28;20100;-52
2021/11/28 00:04:52;;;;;;;50.85;32.10;;;;;;;;;;5003715;28;20091;-53
2021/11/28 00:07:31;;;;;;;64.35;38.28;;;;;;;;;;5003713;28;20154;-51
2021/11/28 00:12:42;;;;;;;54.72;35.25;;;;;;;;;;5003489;28;20025;-54
2021/11/28 00:15:10;;;;;;;60.90;38.28;;;;;;;;;;5003020;28;20485;-53
2021/11/28 00:17:37;;;;;;;63.95;38.20;;;;;;;;;;5003404;28;20046;-53
2021/11/28 00:20:04;;;;;;;50.47;32.90;;;;;;;;;;5003318;28;20080;-54
2021/11/28 00:22:31;;;;;;;51.40;33.10;;;;;;;;;;5003635;28;20405;-54
2021/11/28 00:24:57;;;;;;;63.53;38.28;;;;;;;;;;5003375;28;20026;-54
2021/11/28 00:27:23;;;;;;;49.17;30.85;;;;;;;;;;5003352;28;20873;-54
2021/11/28 00:29:49;;;;;;;48.38;31.35;;;;;;;;;;5003787;28;20032;-54
2021/11/28 00:32:15;;;;;;;48.22;32.15;;;;;;;;;;5003541;28;20491;-54
2021/11/28 00:34:41;;;;;;;53.22;34.45;;;;;;;;;;5003828;28;20022;-55
2021/11/28 00:37:10;;;;;;;55.75;34.05;;;;;;;;;;5003379;28;20033;-55
2021/11/28 00:39:36;;;;;;;52.75;32.17;;;;;;;;;;5003041;28;20021;-55
2021/11/28 00:42:06;;;;;;;49.92;29.92;;;;;;;;;;5003554;28;20037;-55
2021/11/28 00:44:33;;;;;;;52.92;34.10;;;;;;;;;;5003447;28;20041;-55
2021/11/28 00:46:59;;;;;;;44.15;28.83;;;;;;;;;;5021403;28;20049;-53
2021/11/28 00:49:27;;;;;;;55.50;33.42;;;;;;;;;;5013323;28;20448;-54
2021/11/28 00:51:58;;;;;;;48.13;30.17;;;;;;;;;;5028436;28;20037;-54
2021/11/28 00:54:25;;;;;;;50.70;35.35;;;;;;;;;;5013331;28;20045;-54
2021/11/28 00:56:51;;;;;;;61.22;37.25;;;;;;;;;;5013127;28;20108;-52
2021/11/28 00:59:18;;;;;;;57.50;35.90;;;;;;;;;;5013163;28;20018;-53
2021/11/28 01:01:44;;;;;;;51.88;31.75;;;;;;;;;;5028299;28;20080;-54
2021/11/28 01:04:10;;;;;;;66.75;42.50;;;;;;;;;;5013039;28;20076;-54
2021/11/28 01:06:36;;;;;;;67.47;40.67;;;;;;;;;;5013028;28;20084;-54
2021/11/28 01:09:04;;;;;;;61.47;39.17;;;;;;;;;;5028068;28;20018;-54
2021/11/28 01:11:30;;;;;;;85.80;52.03;;;;;;;;;;5013015;28;20488;-54
2021/11/28 01:13:56;;;;;;;58.33;37.05;;;;;;;;;;5012639;28;20034;-52
2021/11/28 01:16:22;;;;;;;71.53;44.30;;;;;;;;;;5013084;28;20038;-55
2021/11/28 01:18:51;;;;;;;46.30;31.35;;;;;;;;;;5012841;28;20033;-54
2021/11/28 01:21:18;;;;;;;56.97;36.78;;;;;;;;;;5012939;28;20072;-56
2021/11/28 01:23:44;;;;;;;64.22;39.20;;;;;;;;;;5012976;28;20017;-56
2021/11/28 01:26:11;;;;;;;60.78;37.03;;;;;;;;;;5012826;28;20096;-56
2021/11/28 01:28:37;;;;;;;51.65;33.85;;;;;;;;;;5012879;28;20092;-55
2021/11/28 01:31:03;;;;;;;57.97;34.55;;;;;;;;;;5015931;28;20084;-54
2021/11/28 01:33:29;;;;;;;75.88;46.65;;;;;;;;;;5016457;28;20053;-53
2021/11/28 01:35:56;;;;;;;66.40;41.33;;;;;;;;;;5016421;28;20029;-54
2021/11/28 01:38:22;;;;;;;52.47;34.50;;;;;;;;;;5016503;28;20017;-53
2021/11/28 01:40:48;;;;;;;58.97;37.38;;;;;;;;;;5016386;28;20127;-54
2021/11/28 01:43:16;;;;;;;64.43;39.03;;;;;;;;;;5016166;28;20033;-52
2021/11/28 01:45:43;;;;;;;62.17;38.85;;;;;;;;;;5016223;28;20052;-52
2021/11/28 01:48:10;;;;;;;68.15;41.13;;;;;;;;;;5016275;28;20156;-52
2021/11/28 01:50:40;;;;;;;63.55;38.92;;;;;;;;;;5016132;28;20105;-53
2021/11/28 01:53:11;;;;;;;54.70;35.03;;;;;;;;;;5016249;28;20018;-54
2021/11/28 01:55:37;;;;;;;66.63;39.37;;;;;;;;;;5016210;28;20028;-54
2021/11/28 01:58:06;;;;;;;67.03;42.15;;;;;;;;;;5016033;28;20429;-55
2021/11/28 02:00:35;;;;;;;71.38;42.38;;;;;;;;;;5016038;28;20030;-55
2021/11/28 02:03:03;;;;;;;52.13;33.65;;;;;;;;;;5015881;28;20022;-55
2021/11/28 02:05:30;;;;;;;46.55;29.90;;;;;;;;;;5015881;28;20049;-55
2021/11/28 02:07:56;;;;;;;55.33;34.92;;;;;;;;;;5015845;28;20072;-55
2021/11/28 02:10:22;;;;;;;57.10;35.70;;;;;;;;;;5015791;28;20462;-54
2021/11/28 02:12:49;;;;;;;59.38;35.85;;;;;;;;;;5015736;28;20386;-54
2021/11/28 02:15:18;;;;;;;57.03;37.00;;;;;;;;;;5015502;28;20050;-56
2021/11/28 02:17:48;;;;;;;58.65;36.85;;;;;;;;;;5015687;28;20030;-55
2021/11/28 02:20:16;;;;;;;59.63;34.72;;;;;;;;;;5015668;28;20033;-55
2021/11/28 02:22:45;;;;;;;52.47;34.08;;;;;;;;;;5015640;28;20489;-55
2021/11/28 02:25:11;;;;;;;51.55;33.17;;;;;;;;;;5015578;28;20046;-56
2021/11/28 02:27:38;;;;;;;65.97;40.38;;;;;;;;;;5015419;28;20443;-54
2021/11/28 02:30:04;;;;;;;65.93;39.22;;;;;;;;;;5015580;28;20018;-53
2021/11/28 02:32:31;;;;;;;55.22;35.72;;;;;;;;;;5030598;28;20045;-56
2021/11/28 02:34:57;;;;;;;62.85;39.80;;;;;;;;;;5015332;28;20462;-56
2021/11/28 02:37:23;;;;;;;60.72;37.13;;;;;;;;;;5015466;28;20034;-58
2021/11/28 02:39:49;;;;;;;58.03;36.65;;;;;;;;;;5015422;28;20029;-57
2021/11/28 02:42:21;;;;;;;63.70;38.92;;;;;;;;;;5014944;28;20080;-52
2021/11/28 02:44:52;;;;;;;57.33;35.83;;;;;;;;;;5046733;28;20042;-55
2021/11/28 02:47:21;;;;;;;52.10;32.40;;;;;;;;;;5015097;28;20073;-55
2021/11/28 02:49:47;;;;;;;57.67;37.38;;;;;;;;;;5015258;28;20014;-56
2021/11/28 02:52:15;;;;;;;66.18;40.33;;;;;;;;;;5015203;28;20030;-56
2021/11/28 02:54:41;;;;;;;71.60;40.63;;;;;;;;;;5014936;28;20018;-55
2021/11/28 02:57:11;;;;;;;55.78;35.92;;;;;;;;;;5015050;28;20021;-55
2021/11/28 02:59:37;;;;;;;54.15;34.10;;;;;;;;;;5015063;28;20111;-55
2021/11/28 03:02:04;;;;;;;47.63;30.25;;;;;;;;;;5014966;28;20537;-57
2021/11/28 03:04:30;;;;;;;49.60;31.17;;;;;;;;;;5014879;28;20117;-57
2021/11/28 03:06:56;;;;;;;49.05;30.38;;;;;;;;;;5014780;28;20069;-55
2021/11/28 03:09:22;;;;;;;47.25;30.35;;;;;;;;;;5014723;28;20022;-56
2021/11/28 03:11:48;;;;;;;45.20;29.52;;;;;;;;;;5025198;28;20462;-56
2021/11/28 03:14:17;;;;;;;58.45;37.05;;;;;;;;;;5034228;28;20048;-55
2021/11/28 03:16:45;;;;;;;54.70;31.83;;;;;;;;;;5034509;28;20167;-57
2021/11/28 03:19:11;;;;;;;57.13;34.28;;;;;;;;;;5034272;28;20013;-56
2021/11/28 03:21:38;;;;;;;50.58;31.80;;;;;;;;;;5034476;28;20041;-56
2021/11/28 03:24:06;;;;;;;48.45;31.25;;;;;;;;;;5034466;28;20520;-56
2021/11/28 03:26:42;;;;;;;51.67;33.95;;;;;;;;;;5034192;28;20069;-58
2021/11/28 03:29:14;;;;;;;50.47;31.75;;;;;;;;;;5034239;28;20071;-58
2021/11/28 03:31:41;;;;;;;51.97;32.53;;;;;;;;;;5034337;28;20029;-57
2021/11/28 03:34:09;;;;;;;51.40;31.25;;;;;;;;;;5034074;28;20030;-57
2021/11/28 03:36:37;;;;;;;52.63;34.45;;;;;;;;;;5034151;28;20022;-57
2021/11/28 03:39:05;;;;;;;47.88;30.33;;;;;;;;;;5034203;28;20053;-56
2021/11/28 03:41:31;;;;;;;46.42;30.23;;;;;;;;;;5034012;28;20030;-58
2021/11/28 03:43:58;;;;;;;48.65;30.67;;;;;;;;;;5033785;28;20099;-57
2021/11/28 03:46:24;;;;;;;44.03;29.67;;;;;;;;;;5033906;28;20038;-57
2021/11/28 03:48:50;;;;;;;47.65;28.90;;;;;;;;;;5033783;28;20029;-56
2021/11/28 03:51:17;;;;;;;41.35;26.25;;;;;;;;;;5033926;28;20029;-57
2021/11/28 03:53:43;;;;;;;50.58;30.77;;;;;;;;;;5032898;28;20108;-56
2021/11/28 03:56:09;;;;;;;46.35;29.27;;;;;;;;;;5033688;28;20033;-57
2021/11/28 03:58:36;;;;;;;45.90;30.35;;;;;;;;;;5032569;28;20028;-58
2021/11/28 04:01:03;;;;;;;47.30;30.70;;;;;;;;;;5033824;28;20017;-56
2021/11/28 04:03:32;;;;;;;50.35;31.83;;;;;;;;;;5033498;28;20030;-56
2021/11/28 04:05:58;;;;;;;46.65;30.90;;;;;;;;;;5033566;28;20097;-57
2021/11/28 04:08:24;;;;;;;50.97;31.45;;;;;;;;;;5033467;28;20409;-55
2021/11/28 04:10:51;;;;;;;58.08;34.65;;;;;;;;;;5033755;28;20036;-56
2021/11/28 04:13:17;;;;;;;49.35;32.13;;;;;;;;;;5033396;28;20022;-56
2021/11/28 04:15:43;;;;;;;46.15;30.95;;;;;;;;;;5033323;28;20076;-58
2021/11/28 04:18:09;;;;;;;48.00;30.70;;;;;;;;;;5033408;28;20018;-58
2021/11/28 04:20:36;;;;;;;46.38;31.00;;;;;;;;;;5033416;28;20036;-57
2021/11/28 04:23:02;;;;;;;39.83;28.13;;;;;;;;;;5033342;28;20096;-57
2021/11/28 04:25:28;;;;;;;45.55;28.55;;;;;;;;;;5033364;28;20037;-57
2021/11/28 04:27:55;;;;;;;62.72;30.88;;;;;;;;;;5033131;28;20033;-58
2021/11/28 04:30:21;;;;;;;67.40;33.47;;;;;;;;;;5033357;28;20030;-55
2021/11/28 04:32:47;;;;;;;48.88;27.77;;;;;;;;;;5033403;28;20104;-55
2021/11/28 04:35:13;;;;;;;53.97;28.85;;;;;;;;;;5033232;28;20050;-54
2021/11/28 04:37:40;;;;;;;56.75;31.10;;;;;;;;;;5032980;28;20074;-54
2021/11/28 04:40:08;;;;;;;55.25;30.90;;;;;;;;;;5033127;28;20028;-54
2021/11/28 04:42:36;;;;;;;44.28;28.42;;;;;;;;;;5033210;28;20026;-55
2021/11/28 04:45:06;;;;;;;43.47;28.75;;;;;;;;;;5032981;28;20044;-54
2021/11/28 04:47:32;;;;;;;36.42;24.48;;;;;;;;;;5032977;28;20178;-54
2021/11/28 04:49:58;;;;;;;37.75;23.25;;;;;;;;;;5033012;28;20108;-55
2021/11/28 04:52:24;;;;;;;36.65;23.48;;;;;;;;;;5033004;28;20053;-55
2021/11/28 04:54:50;;;;;;;37.22;22.20;;;;;;;;;;5033328;28;20509;-58
2021/11/28 04:57:19;;;;;;;36.00;22.48;;;;;;;;;;5033081;28;20036;-54
2021/11/28 04:59:46;;;;;;;35.75;22.52;;;;;;;;;;5033152;28;20049;-56
2021/11/28 05:02:12;;;;;;;32.05;22.75;;;;;;;;;;5031800;28;20393;-58
2021/11/28 05:04:38;;;;;;;32.47;21.25;;;;;;;;;;5033960;28;20030;-55
2021/11/28 05:07:05;;;;;;;43.83;26.88;;;;;;;;;;5035385;28;20052;-55
2021/11/28 05:09:35;;;;;;;46.63;26.33;;;;;;;;;;5036893;28;20072;-54
2021/11/28 05:12:03;;;;;;;41.80;24.92;;;;;;;;;;5036752;28;20583;-55
2021/11/28 05:14:29;;;;;;;48.95;27.35;;;;;;;;;;5035014;28;20140;-54
2021/11/28 05:17:00;;;;;;;45.83;25.08;;;;;;;;;;5035401;28;20033;-57
2021/11/28 05:19:26;;;;;;;45.63;24.83;;;;;;;;;;5036555;28;20387;-54
2021/11/28 05:21:52;;;;;;;50.25;26.30;;;;;;;;;;5036589;28;20055;-55
2021/11/28 05:24:18;;;;;;;41.63;24.38;;;;;;;;;;5036486;28;20109;-56
2021/11/28 05:26:49;;;;;;;39.15;23.75;;;;;;;;;;5036454;28;20095;-57
2021/11/28 05:29:18;;;;;;;39.65;22.92;;;;;;;;;;5036516;28;20028;-55
2021/11/28 05:31:44;;;;;;;43.13;23.15;;;;;;;;;;5036502;28;20104;-56
2021/11/28 05:34:10;;;;;;;47.83;24.35;;;;;;;;;;5036506;28;20028;-57
2021/11/28 05:36:36;;;;;;;37.40;21.05;;;;;;;;;;5036252;28;20485;-56
2021/11/28 05:39:05;;;;;;;42.05;24.20;;;;;;;;;;5036293;28;20029;-55
2021/11/28 05:41:31;;;;;;;42.50;23.95;;;;;;;;;;5036288;28;20013;-54
2021/11/28 05:43:57;;;;;;;37.47;22.17;;;;;;;;;;5034703;28;20037;-55
2021/11/28 05:46:24;;;;;;;37.30;22.13;;;;;;;;;;5036335;28;20038;-56
2021/11/28 05:48:50;;;;;;;30.10;18.85;;;;;;;;;;5036141;28;20057;-55
2021/11/28 05:51:16;;;;;;;28.58;17.67;;;;;;;;;;5036151;28;20032;-55
2021/11/28 05:53:42;;;;;;;29.27;18.10;;;;;;;;;;5036327;28;20503;-56
2021/11/28 05:56:08;;;;;;;26.48;16.67;;;;;;;;;;5036078;28;20030;-56
2021/11/28 05:58:34;;;;;;;27.95;16.90;;;;;;;;;;5036397;28;20049;-56
2021/11/28 06:01:00;;;;;;;26.48;18.15;;;;;;;;;;5036024;28;20037;-59
2021/11/28 06:03:26;;;;;;;28.10;17.52;;;;;;;;;;5035959;28;20118;-56
2021/11/28 06:05:53;;;;;;;36.85;22.10;;;;;;;;;;5035649;28;20491;-55
2021/11/28 06:08:19;;;;;;;32.55;20.35;;;;;;;;;;5035745;28;20036;-59
2021/11/28 06:10:48;;;;;;;42.28;23.65;;;;;;;;;;5035844;28;20028;-56
2021/11/28 06:13:14;;;;;;;43.55;20.73;;;;;;;;;;5035661;28;20413;-55
2021/11/28 06:15:41;;;;;;;41.35;19.38;;;;;;;;;;5035161;28;20061;-57
2021/11/28 06:18:07;;;;;;;32.15;16.75;;;;;;;;;;5033804;28;20030;-56
2021/11/28 06:20:33;;;;;;;30.70;17.77;;;;;;;;;;5035409;28;20029;-59
2021/11/28 06:22:59;;;;;;;26.17;15.45;;;;;;;;;;5035741;28;20378;-55
2021/11/28 06:25:25;;;;;;;26.55;15.68;;;;;;;;;;5035649;28;20497;-56
2021/11/28 06:27:51;;;;;;;28.88;18.20;;;;;;;;;;5035502;28;20042;-55
2021/11/28 06:30:17;;;;;;;41.42;23.63;;;;;;;;;;5035325;28;20418;-55
2021/11/28 06:32:44;;;;;;;93.07;34.78;;;;;;;;;;5035381;28;20026;-56
2021/11/28 06:35:10;;;;;;;91.25;33.00;;;;;;;;;;5035343;28;20036;-56
2021/11/28 06:37:36;;;;;;;64.68;27.63;;;;;;;;;;5035156;28;20030;-56
2021/11/28 06:40:06;;;;;;;84.75;32.53;;;;;;;;;;5035152;28;20041;-58
2021/11/28 06:42:32;;;;;;;100.50;39.70;;;;;;;;;;5035149;28;20413;-57
2021/11/28 06:44:58;;;;;;;100.82;39.70;;;;;;;;;;5035039;28;20044;-57
2021/11/28 06:47:24;;;;;;;41.10;21.98;;;;;;;;;;5034988;28;20052;-56
2021/11/28 06:49:50;;;;;;;40.67;22.80;;;;;;;;;;5034987;28;20025;-56
2021/11/28 06:52:16;;;;;;;39.08;22.42;;;;;;;;;;5034966;28;20033;-57
2021/11/28 06:54:43;;;;;;;46.72;24.20;;;;;;;;;;5035136;28;20017;-56
2021/11/28 06:57:09;;;;;;;43.38;24.45;;;;;;;;;;5034810;28;20424;-59
2021/11/28 06:59:36;;;;;;;33.72;19.35;;;;;;;;;;5034914;28;20033;-55
2021/11/28 07:02:04;;;;;;;30.92;18.23;;;;;;;;;;5034948;28;20458;-56
2021/11/28 07:04:30;;;;;;;31.58;19.00;;;;;;;;;;5034600;28;20512;-56
2021/11/28 07:06:56;;;;;;;34.00;21.17;;;;;;;;;;5034914;28;20105;-56
2021/11/28 07:09:22;;;;;;;35.72;22.50;;;;;;;;;;5034800;28;20026;-57
2021/11/28 07:11:49;;;;;;;40.15;21.95;;;;;;;;;;5034817;28;20030;-56
2021/11/28 07:14:15;;;;;;;37.90;21.58;;;;;;;;;;5034214;28;20508;-57
2021/11/28 07:16:41;;;;;;;36.95;19.95;;;;;;;;;;5034501;28;20025;-56
2021/11/28 07:19:07;;;;;;;31.80;19.63;;;;;;;;;;5034740;28;20146;-57
2021/11/28 07:21:33;;;;;;;27.65;18.10;;;;;;;;;;5034163;28;20036;-59
2021/11/28 07:24:01;;;;;;;38.00;24.52;;;;;;;;;;5034674;28;20079;-58
2021/11/28 07:26:27;;;;;;;36.13;21.65;;;;;;;;;;5034356;28;20025;-57
2021/11/28 07:28:54;;;;;;;41.10;23.67;;;;;;;;;;5034357;28;20025;-57
2021/11/28 07:31:20;;;;;;;34.60;21.45;;;;;;;;;;5034167;28;20021;-57
2021/11/28 07:33:49;;;;;;;37.15;18.75;;;;;;;;;;5034164;28;20112;-56
2021/11/28 07:36:15;;;;;;;28.75;18.40;;;;;;;;;;5034030;28;20022;-58
2021/11/28 07:38:41;;;;;;;30.35;16.50;;;;;;;;;;5034260;28;20459;-57
2021/11/28 07:41:07;;;;;;;27.70;16.75;;;;;;;;;;5034373;28;20022;-55
2021/11/28 07:43:33;;;;;;;27.90;16.77;;;;;;;;;;5033831;28;20036;-56
2021/11/28 07:46:01;;;;;;;32.22;18.92;;;;;;;;;;5033962;28;20099;-59
2021/11/28 07:48:28;;;;;;;27.00;15.15;;;;;;;;;;5033871;28;20446;-59
2021/11/28 07:50:54;;;;;;;28.83;17.27;;;;;;;;;;5033815;28;20056;-56
2021/11/28 07:53:21;;;;;;;35.50;20.75;;;;;;;;;;5033943;28;20028;-54
2021/11/28 07:55:47;;;;;;;27.08;16.05;;;;;;;;;;5034077;28;20052;-57
2021/11/28 07:58:13;;;;;;;27.15;16.48;;;;;;;;;;5033779;28;20060;-57
2021/11/28 08:00:39;;;;;;;27.10;15.77;;;;;;;;;;5033843;28;20470;-58
2021/11/28 08:03:06;;;;;;;25.02;16.83;;;;;;;;;;5033753;28;20021;-58
2021/11/28 08:05:32;;;;;;;28.23;17.60;;;;;;;;;;5033595;28;20029;-53
2021/11/28 08:07:58;;;;;;;25.85;18.00;;;;;;;;;;5033585;28;20036;-56
2021/11/28 08:10:26;;;;;;;32.88;19.70;;;;;;;;;;5033701;28;20366;-55
2021/11/28 08:12:52;;;;;;;32.25;19.65;;;;;;;;;;5033460;28;20024;-54
2021/11/28 08:15:21;;;;;;;33.40;20.60;;;;;;;;;;5033316;28;20076;-55
2021/11/28 08:17:47;;;;;;;30.08;19.88;;;;;;;;;;5033468;28;20029;-54
2021/11/28 08:20:14;;;;;;;32.53;20.73;;;;;;;;;;5033450;28;20466;-54
2021/11/28 08:22:40;;;;;;;42.78;23.85;;;;;;;;;;5033365;28;20028;-54
2021/11/28 08:25:08;;;;;;;40.58;24.73;;;;;;;;;;5033405;28;20091;-55
2021/11/28 08:27:34;;;;;;;39.38;23.50;;;;;;;;;;5033285;28;20487;-55
2021/11/28 08:30:04;;;;;;;29.33;18.38;;;;;;;;;;5033533;28;20060;-54
2021/11/28 08:32:30;;;;;;;30.52;20.95;;;;;;;;;;5033302;28;20017;-55
2021/11/28 08:34:56;;;;;;;35.78;21.92;;;;;;;;;;5033249;28;20021;-55
2021/11/28 08:37:22;;;;;;;36.58;24.80;;;;;;;;;;5033101;28;20033;-54
2021/11/28 08:39:48;;;;;;;31.88;25.17;;;;;;;;;;5032679;28;20060;-55
2021/11/28 08:42:15;;;;;;;42.08;25.75;;;;;;;;;;5033166;28;20034;-54
2021/11/28 08:44:41;;;;;;;30.92;22.38;;;;;;;;;;5032949;28;20022;-56
2021/11/28 08:47:07;;;;;;;26.92;19.50;;;;;;;;;;5033086;28;20195;-56
2021/11/28 08:49:33;;;;;;;27.88;19.23;;;;;;;;;;5033101;28;20028;-56
2021/11/28 08:51:59;;;;;;;36.33;23.27;;;;;;;;;;5032891;28;20029;-58
2021/11/28 08:54:30;;;;;;;31.20;22.73;;;;;;;;;;5032640;28;20543;-56
2021/11/28 08:56:58;;;;;;;26.45;19.75;;;;;;;;;;5032416;28;20021;-56
2021/11/28 08:59:26;;;;;;;24.77;18.90;;;;;;;;;;5032487;28;20020;-55
2021/11/28 09:01:52;;;;;;;26.67;20.45;;;;;;;;;;5032363;28;20020;-55
2021/11/28 09:04:18;;;;;;;29.30;21.40;;;;;;;;;;5032405;28;20080;-56
2021/11/28 09:06:44;;;;;;;39.78;23.90;;;;;;;;;;5032045;28;20524;-56
2021/11/28 09:09:11;;;;;;;30.75;21.83;;;;;;;;;;5032279;28;20030;-58
2021/11/28 09:11:37;;;;;;;25.83;19.05;;;;;;;;;;5032283;28;20050;-55
2021/11/28 09:14:04;;;;;;;30.88;20.75;;;;;;;;;;5031936;28;20053;-54
2021/11/28 09:16:31;;;;;;;33.47;20.30;;;;;;;;;;5032340;28;20026;-55
2021/11/28 09:19:06;;;;;;;32.92;20.63;;;;;;;;;;5032190;28;20382;-57
2021/11/28 09:21:33;;;;;;;37.65;23.15;;;;;;;;;;5031913;28;20039;-55
2021/11/28 09:26:47;;;;;;;34.75;21.23;;;;;;;;;;5030536;28;20444;-54
2021/11/28 09:29:13;;;;;;;37.85;23.83;;;;;;;;;;5032049;28;20033;-54
2021/11/28 09:31:40;;;;;;;40.28;25.20;;;;;;;;;;5032158;28;20021;-55
2021/11/28 09:34:06;;;;;;;34.97;22.70;;;;;;;;;;5031416;28;20032;-54
2021/11/28 09:36:32;;;;;;;36.38;22.65;;;;;;;;;;5032748;28;20132;-55
2021/11/28 09:38:59;;;;;;;36.58;23.13;;;;;;;;;;5032544;28;20030;-56
2021/11/28 09:41:25;;;;;;;34.78;22.63;;;;;;;;;;5032485;28;20037;-56
2021/11/28 09:43:54;;;;;;;40.10;24.42;;;;;;;;;;5032391;28;20029;-56
2021/11/28 09:46:22;;;;;;;41.50;25.73;;;;;;;;;;5032505;28;20485;-57
2021/11/28 09:48:51;;;;;;;48.15;28.25;;;;;;;;;;5032196;28;20041;-56
2021/11/28 09:51:17;;;;;;;44.13;27.52;;;;;;;;;;5032787;28;20481;-55
2021/11/28 09:53:44;;;;;;;50.13;30.20;;;;;;;;;;5036014;28;20032;-56
2021/11/28 09:56:10;;;;;;;43.70;29.08;;;;;;;;;;5035916;28;20018;-57
2021/11/28 09:58:39;;;;;;;41.83;26.10;;;;;;;;;;5034587;28;20083;-57
2021/11/28 10:01:05;;;;;;;36.28;24.13;;;;;;;;;;5035772;28;20037;-56
2021/11/28 10:03:31;;;;;;;36.80;23.52;;;;;;;;;;5036210;28;20030;-56
2021/11/28 10:05:58;;;;;;;35.33;22.55;;;;;;;;;;5035746;28;20037;-56
2021/11/28 10:08:27;;;;;;;42.05;25.40;;;;;;;;;;5035610;28;20035;-59
2021/11/28 10:11:14;;;;;;;37.00;22.75;;;;;;;;;;5035610;28;20049;-58
2021/11/28 10:13:40;;;;;;;38.90;22.73;;;;;;;;;;5035302;28;20033;-60
2021/11/28 10:16:06;;;;;;;33.92;19.65;;;;;;;;;;5035510;28;20046;-58
2021/11/28 10:18:34;;;;;;;28.35;18.20;;;;;;;;;;5035464;28;20486;-58
2021/11/28 10:21:01;;;;;;;35.60;22.02;;;;;;;;;;5035487;28;20029;-57
2021/11/28 10:23:27;;;;;;;27.92;17.05;;;;;;;;;;5035375;28;20018;-55
2021/11/28 10:26:12;;;;;;;54.20;16.58;;;;;;;;;;5035524;28;20477;-58
2021/11/28 10:29:00;;;;;;;32.72;17.55;;;;;;;;;;5035236;28;20399;-53
2021/11/28 10:31:26;;;;;;;32.13;16.73;;;;;;;;;;5035413;28;20143;-54
2021/11/28 10:33:52;;;;;;;25.27;14.80;;;;;;;;;;5035379;28;20108;-53
2021/11/28 10:36:20;;;;;;;27.98;16.88;;;;;;;;;;5014601;28;20030;-52
2021/11/28 10:38:47;;;;;;;30.33;17.02;;;;;;;;;;5004760;28;20025;-47
2021/11/28 10:41:19;;;;;;;29.08;16.55;;;;;;;;;;5005517;28;20619;-51
2021/11/28 10:43:45;;;;;;;22.77;14.68;;;;;;;;;;5004998;28;20030;-54
2021/11/28 10:46:30;;;;;;;59.80;30.08;;;;;;;;;;5005527;28;20021;-48
2021/11/28 10:49:32;;;;;;;33.47;19.15;;;;;;;;;;5005273;28;20030;-52
2021/11/28 10:52:10;;;;;;;90.30;44.92;;;;;;;;;;4939748;28;20046;-45
2021/11/28 10:54:40;;;;;;;55.42;31.00;;;;;;;;;;4938369;28;20043;-50
2021/11/28 10:57:06;;;;;;;43.55;25.20;;;;;;;;;;4939795;28;20550;-48
2021/11/28 10:59:33;;;;;;;46.40;25.80;;;;;;;;;;4939922;28;20158;-47
2021/11/28 11:01:59;;;;;;;34.88;20.75;;;;;;;;;;4939502;28;20090;-51
2021/11/28 11:04:29;;;;;;;32.70;18.25;;;;;;;;;;4939073;28;20055;-48
2021/11/28 11:07:07;;;;;;;27.73;15.43;;;;;;;;;;4939498;28;20050;-51
2021/11/28 11:09:43;;;;;;;30.77;17.52;;;;;;;;;;4939397;28;20031;-48
2021/11/28 11:12:21;;;;;;;25.95;15.10;;;;;;;;;;4955890;28;20537;-52
2021/11/28 11:14:48;;;;;;;27.50;16.23;;;;;;;;;;4993086;28;20503;-50
2021/11/28 11:17:14;;;;;;;24.05;14.07;;;;;;;;;;4993392;28;20035;-52
2021/11/28 11:19:45;;;;;;;26.83;14.80;;;;;;;;;;4991902;28;20080;-50
2021/11/28 11:22:19;;;;;;;23.13;13.93;;;;;;;;;;4973232;28;20035;-53
2021/11/28 11:25:06;;;;;;;24.38;13.43;;;;;;;;;;4973266;28;20030;-52
2021/11/28 11:27:33;;;;;;;25.80;16.60;;;;;;;;;;5019071;28;20064;-53
2021/11/28 11:30:13;;;;;;;25.98;16.17;;;;;;;;;;5034128;28;20022;-52
2021/11/28 11:32:42;;;;;;;28.10;14.85;;;;;;;;;;5032467;28;20026;-53
2021/11/28 11:35:09;;;;;;;23.00;13.85;;;;;;;;;;5033838;28;20029;-53
2021/11/28 11:37:35;;;;;;;28.90;18.15;;;;;;;;;;5033617;28;20557;-53
2021/11/28 11:40:05;;;;;;;23.58;14.18;;;;;;;;;;5033570;28;20033;-51
2021/11/28 11:42:34;;;;;;;28.30;17.60;;;;;;;;;;5033626;28;20097;-52
2021/11/28 11:45:00;;;;;;;28.13;16.77;;;;;;;;;;5033514;28;20017;-49
2021/11/28 11:47:26;;;;;;;35.13;20.33;;;;;;;;;;5033631;28;20374;-48
2021/11/28 11:49:52;;;;;;;37.92;20.85;;;;;;;;;;5033603;28;20032;-52
2021/11/28 11:52:19;;;;;;;32.75;19.48;;;;;;;;;;5033378;28;20044;-54
2021/11/28 11:54:50;;;;;;;44.95;26.45;;;;;;;;;;5033387;28;20678;-51
2021/11/28 11:57:19;;;;;;;27.45;16.15;;;;;;;;;;5031504;28;20454;-52
2021/11/28 12:00:02;;;;;;;32.85;19.00;;;;;;;;;;5033317;28;20030;-53
2021/11/28 12:02:30;;;;;;;41.17;22.83;;;;;;;;;;5033247;28;20028;-51
2021/11/28 12:04:56;;;;;;;34.60;19.27;;;;;;;;;;5033191;28;20101;-52
2021/11/28 12:07:57;;;;;;;23.52;14.98;;;;;;;;;;5033094;28;20056;-54
2021/11/28 12:10:31;;;;;;;51.65;28.48;;;;;;;;;;4972252;28;20065;-53
2021/11/28 12:12:57;;;;;;;30.73;17.15;;;;;;;;;;4970621;28;20039;-53
2021/11/28 12:15:25;;;;;;;27.52;15.75;;;;;;;;;;4971330;28;20061;-53
2021/11/28 12:17:53;;;;;;;25.33;14.30;;;;;;;;;;4972255;28;20030;-53
2021/11/28 12:20:41;;;;;;;15.48;8.55;;;;;;;;;;4955885;28;20027;-52
2021/11/28 12:23:07;;;;;;;21.83;12.07;;;;;;;;;;4961989;28;20031;-51
2021/11/28 12:25:39;;;;;;;28.42;15.45;;;;;;;;;;4972485;28;20037;-52
2021/11/28 12:28:21;;;;;;;21.73;10.55;;;;;;;;;;4972654;28;20034;-51
2021/11/28 12:30:54;;;;;;;30.92;14.75;;;;;;;;;;4972491;28;20023;-54
2021/11/28 12:33:20;;;;;;;14.02;7.10;;;;;;;;;;4956113;28;20090;-53
2021/11/28 12:35:47;;;;;;;16.88;6.90;;;;;;;;;;4972601;28;20027;-53
2021/11/28 12:38:13;;;;;;;12.02;6.22;;;;;;;;;;4972502;28;20070;-54
2021/11/28 12:40:46;;;;;;;15.77;6.90;;;;;;;;;;4972639;28;20037;-53
2021/11/28 12:43:15;;;;;;;11.82;5.93;;;;;;;;;;4972235;28;20061;-52
2021/11/28 12:45:44;;;;;;;13.07;6.55;;;;;;;;;;4995814;28;20037;-51
2021/11/28 12:48:20;;;;;;;12.70;5.57;;;;;;;;;;5033048;28;20033;-51
2021/11/28 12:51:01;;;;;;;10.55;5.00;;;;;;;;;;5033178;28;20087;-54
2021/11/28 12:53:31;;;;;;;19.30;9.25;;;;;;;;;;5032116;28;20022;-54
2021/11/28 12:56:13;;;;;;;15.88;9.00;;;;;;;;;;5033115;28;20018;-53
2021/11/28 12:58:58;;;;;;;13.07;6.43;;;;;;;;;;5033306;28;20417;-52
2021/11/28 13:01:42;;;;;;;24.10;11.45;;;;;;;;;;5033307;28;20104;-53
2021/11/28 13:04:28;;;;;;;13.82;9.13;;;;;;;;;;5032929;28;20454;-53
2021/11/28 13:07:13;;;;;;;17.23;7.22;;;;;;;;;;5032787;28;20095;-51
2021/11/28 13:09:44;;;;;;;13.85;8.05;;;;;;;;;;5033111;28;20121;-54
2021/11/28 13:12:10;;;;;;;12.55;6.93;;;;;;;;;;5033095;28;20017;-55
2021/11/28 13:14:36;;;;;;;15.68;8.23;;;;;;;;;;5032720;28;20073;-54
2021/11/28 13:17:05;;;;;;;25.95;9.65;;;;;;;;;;5033120;28;20034;-53
2021/11/28 13:19:33;;;;;;;20.33;8.90;;;;;;;;;;5033218;28;20373;-54
2021/11/28 13:21:59;;;;;;;22.42;10.25;;;;;;;;;;5032928;28;20053;-54
2021/11/28 13:24:28;;;;;;;15.25;8.27;;;;;;;;;;5032898;28;20033;-53
2021/11/28 13:26:55;;;;;;;18.10;8.82;;;;;;;;;;5035816;28;20064;-54
2021/11/28 13:29:26;;;;;;;18.67;9.98;;;;;;;;;;5036689;28;20034;-51
2021/11/28 13:31:58;;;;;;;27.53;12.93;;;;;;;;;;5035305;28;20034;-53
2021/11/28 13:34:30;;;;;;;27.13;13.45;;;;;;;;;;5036653;28;20022;-54
2021/11/28 13:36:58;;;;;;;21.70;10.27;;;;;;;;;;5036571;28;20060;-54
2021/11/28 13:39:26;;;;;;;20.27;9.70;;;;;;;;;;5036563;28;20064;-54
2021/11/28 13:41:54;;;;;;;17.73;8.80;;;;;;;;;;5036555;28;20028;-53
2021/11/28 13:44:25;;;;;;;15.63;7.50;;;;;;;;;;5036577;28;20105;-54
2021/11/28 13:46:54;;;;;;;16.95;9.88;;;;;;;;;;5036702;28;20057;-53
2021/11/28 13:49:20;;;;;;;23.02;11.35;;;;;;;;;;5036460;28;20405;-54
2021/11/28 13:51:50;;;;;;;14.13;7.38;;;;;;;;;;5036298;28;20414;-49
2021/11/28 13:54:36;;;;;;;18.83;9.77;;;;;;;;;;5036306;28;20022;-53
2021/11/28 13:57:06;;;;;;;16.33;8.15;;;;;;;;;;5036300;28;20025;-53
2021/11/28 13:59:35;;;;;;;14.27;9.13;;;;;;;;;;5034735;28;20033;-55
2021/11/28 14:02:06;;;;;;;12.05;7.88;;;;;;;;;;5036048;28;20106;-53
2021/11/28 14:04:32;;;;;;;14.40;7.00;;;;;;;;;;5036008;28;20021;-53
2021/11/28 14:07:00;;;;;;;11.80;7.47;;;;;;;;;;5036024;28;20484;-52
2021/11/28 14:09:29;;;;;;;15.23;7.57;;;;;;;;;;5035902;28;20121;-52
2021/11/28 14:11:55;;;;;;;17.23;9.88;;;;;;;;;;5034647;28;20109;-52
2021/11/28 14:14:23;;;;;;;15.70;8.88;;;;;;;;;;5035823;28;20069;-52
2021/11/28 14:16:51;;;;;;;23.83;11.45;;;;;;;;;;5036051;28;20087;-52
2021/11/28 14:19:35;;;;;;;20.50;10.63;;;;;;;;;;5034436;28;20501;-52
2021/11/28 14:22:03;;;;;;;21.77;13.23;;;;;;;;;;5035720;28;20156;-52
2021/11/28 14:24:31;;;;;;;26.13;12.90;;;;;;;;;;5035971;28;20026;-52
2021/11/28 14:27:18;;;;;;;23.77;14.20;;;;;;;;;;5035606;28;20056;-52
2021/11/28 14:29:45;;;;;;;34.83;21.73;;;;;;;;;;5035593;28;20034;-52
2021/11/28 14:32:14;;;;;;;31.85;18.40;;;;;;;;;;5035361;28;20067;-52